Latest Weather Observations for Mallacoota

IDV60801

Issued at 3:05 pm EDT Monday 20 October 2014 (issued every 30 minutes, with the page automatically refreshed every 10 minutes)

About weather observations | Map of weather stations | Latest weather observations for VIC | Other Formats
Station Details ID: 084084 Name: MALLACOOTA Lat: -37.60 Lon: 149.73 Height: 22.0 m
Data from the previous 72 hours. | See also: Recent months at Mallacoota
Date/Time
EDT
Temp
°C
App
Temp
°C
Dew
Point
Rel
Hum
%
Delta-T
°C
Wind Press
QNH
hPa
Press
MSL
hPa
Rain
since 9 am
mm
Dir
 
Spd
km/h
Gust
km/h
Spd
kts
Gust
kts
20/03:00pm 15.3 11.3 6.6 56 4.2 SE 17 24 9 13 1031.9 1032.0 0.0
20/02:30pm 14.9 10.7 5.7 54 4.3 SE 17 22 9 12 1032.0 - 0.0
20/02:00pm 15.9 12.1 7.4 57 4.2 SE 17 22 9 12 1032.1 - 0.0
20/01:30pm 15.1 10.8 6.9 58 4.0 SE 19 26 10 14 1032.3 - 0.0
20/01:00pm 15.5 12.3 6.8 56 4.3 SE 13 24 7 13 1032.1 - 0.0
20/12:30pm 15.2 12.2 6.2 55 4.3 SE 11 20 6 11 1032.4 - 0.0
20/12:00pm 14.8 12.1 7.4 61 3.6 SE 11 24 6 13 1032.8 1032.9 0.0
20/11:30am 14.4 11.7 7.2 62 3.5 ESE 11 20 6 11 1032.8 - 0.0
20/11:00am 14.6 11.5 7.4 62 3.5 S 13 24 7 13 1032.7 - 0.0
20/10:30am 15.2 11.9 8.0 62 3.6 SE 15 28 8 15 1032.4 - 0.0
20/10:00am 16.1 13.9 9.5 65 3.4 SSE 11 24 6 13 1032.1 - 0.0
20/09:30am 14.2 10.8 9.2 72 2.6 SE 17 24 9 13 1031.7 - 0.0
20/09:00am 15.0 11.7 9.6 70 2.8 ESE 17 22 9 12 1031.1 1031.2 0.6
20/08:30am 13.7 9.4 9.2 74 2.3 S 22 35 12 19 1030.8 - 0.6
20/08:00am 13.6 8.0 8.9 73 2.4 S 28 33 15 18 1030.5 - 0.6
20/07:30am 13.3 8.7 9.5 78 1.9 S 24 35 13 19 1029.9 - 0.6
20/07:00am 13.0 8.6 10.5 85 1.3 S 24 37 13 20 1029.6 - 0.6
20/06:30am 11.8 9.4 10.0 89 0.9 SW 13 22 7 12 1029.3 - 0.6
20/06:00am 12.5 9.5 10.6 88 1.0 SW 17 32 9 17 1028.7 1028.8 0.6
20/05:30am 13.2 8.6 9.5 78 1.9 SSW 24 39 13 21 1028.2 - 0.0
20/05:00am 13.3 8.4 8.4 72 2.4 SW 24 46 13 25 1027.7 - 0.0
20/04:30am 13.3 8.8 8.4 72 2.4 SW 22 39 12 21 1027.2 - 0.0
20/04:00am 13.4 8.9 8.5 72 2.5 SW 22 39 12 21 1026.9 - 0.0
20/03:43am 13.6 7.4 7.8 68 2.9 SW 30 48 16 26 1026.6 - 0.0
20/03:30am 13.6 8.5 7.8 68 2.9 SW 24 43 13 23 1026.6 - 0.0
20/03:00am 14.0 9.2 7.3 64 3.3 SW 22 33 12 18 1026.3 1026.4 0.0
20/02:30am 14.3 8.6 8.3 67 3.0 SW 28 43 15 23 1025.9 - 0.0
20/02:00am 14.4 9.7 9.2 71 2.7 SW 24 41 13 22 1025.4 - 0.0
20/01:30am 14.7 10.4 9.5 71 2.7 SW 22 46 12 25 1025.2 - 0.0
20/01:00am 15.0 10.5 10.0 72 2.6 SW 24 43 13 23 1025.2 - 0.0
20/12:30am 15.3 11.6 10.3 72 2.6 SW 20 35 11 19 1024.8 - 0.0
20/12:00am 15.4 11.9 10.2 71 2.7 WSW 19 35 10 19 1024.1 1024.2 0.0
 
Date/Time
EDT
Temp
°C
App
Temp
°C
Dew
Point
Rel
Hum
%
Delta-T
°C
Wind Press
QNH
hPa
Press
MSL
hPa
Rain
since 9 am
mm
Dir
 
Spd
km/h
Gust
km/h
Spd
kts
Gust
kts
19/11:30pm 15.9 12.3 10.4 70 2.9 WSW 20 35 11 19 1023.7 - 0.0
19/11:00pm 16.7 12.8 10.8 68 3.2 WSW 22 39 12 21 1023.1 - 0.0
19/10:30pm 17.4 13.1 10.8 65 3.5 SW 24 37 13 20 1022.4 - 0.0
19/10:00pm 17.4 12.9 12.5 73 2.7 SW 28 46 15 25 1022.1 - 0.0
19/09:30pm 19.4 13.9 10.7 57 4.7 SSW 30 54 16 29 1021.4 - 0.0
19/09:24pm 20.2 15.5 11.9 59 4.6 SSW 28 50 15 27 1021.2 - 0.0
19/09:00pm 20.3 19.7 13.5 65 3.9 WNW 9 11 5 6 1019.9 1019.9 0.0
19/08:30pm 20.2 19.6 13.4 65 3.9 WNW 9 11 5 6 1019.4 - 0.0
19/08:00pm 22.1 21.2 12.6 55 5.4 WNW 9 15 5 8 1019.4 - 0.0
19/07:30pm 22.4 21.4 13.5 57 5.2 NW 11 15 6 8 1018.8 - 0.0
19/07:00pm 23.2 22.6 14.7 58 5.0 NNW 11 17 6 9 1018.2 - 0.0
19/06:30pm 21.9 22.3 13.8 60 4.7 E 4 7 2 4 1018.0 - 0.0
19/06:00pm 22.2 22.2 14.3 61 4.6 NE 7 11 4 6 1017.5 1017.5 0.0
19/05:30pm 21.5 21.6 14.4 64 4.2 ENE 7 11 4 6 1017.6 - 0.0
19/05:00pm 22.4 22.1 14.3 60 4.8 NE 9 13 5 7 1017.6 - 0.0
19/04:30pm 23.2 20.7 13.4 54 5.7 ENE 19 26 10 14 1017.5 - 0.0
19/04:00pm 23.2 20.8 12.8 52 6.0 ENE 17 26 9 14 1018.0 - 0.0
19/03:30pm 23.3 22.2 13.2 53 5.8 NE 11 17 6 9 1018.4 - 0.0
19/03:00pm 23.1 22.4 14.4 58 5.1 NE 11 19 6 10 1018.7 1018.7 0.0
19/02:30pm 22.7 22.3 15.3 63 4.4 NE 11 15 6 8 1018.9 - 0.0
19/02:00pm 22.4 21.6 15.0 63 4.4 NE 13 17 7 9 1019.4 - 0.0
19/01:30pm 23.8 22.7 14.2 55 5.7 ENE 13 17 7 9 1019.9 - 0.0
19/01:00pm 27.4 26.1 11.4 37 9.1 NNE 9 15 5 8 1020.1 - 0.0
19/12:30pm 27.2 26.8 14.2 44 7.8 N 9 15 5 8 1020.2 - 0.0
19/12:00pm 26.1 24.9 12.9 44 7.7 N 11 17 6 9 1020.5 1020.5 0.0
19/11:30am 25.3 24.5 14.1 50 6.6 NNW 11 19 6 10 1021.0 - 0.0
19/11:00am 23.7 22.6 13.0 51 6.2 NNW 11 15 6 8 1021.3 - 0.0
19/10:30am 21.9 19.3 10.7 49 6.2 NNW 15 24 8 13 1021.4 - 0.0
19/10:00am 19.1 17.7 12.1 64 3.9 NNW 11 20 6 11 1021.6 - 0.0
19/09:30am 18.4 15.9 11.2 63 3.9 N 15 22 8 12 1021.5 - 0.0
19/09:00am 16.7 14.1 10.8 68 3.1 NNW 15 20 8 11 1021.5 1021.6 0.0
19/08:30am 15.5 12.8 10.3 71 2.7 NNW 15 19 8 10 1021.6 - 0.0
19/08:00am 15.8 12.7 10.3 70 2.9 NNW 17 24 9 13 1021.8 - 0.0
19/07:30am 15.1 12.4 10.5 74 2.4 NNW 15 22 8 12 1021.9 - 0.0
19/07:00am 14.4 11.3 10.2 76 2.2 NNW 17 26 9 14 1021.8 - 0.0
19/06:30am 13.9 10.8 10.3 79 1.9 NW 17 24 9 13 1021.7 - 0.0
19/06:00am 13.7 11.0 10.5 81 1.7 NNW 15 20 8 11 1021.7 1021.8 0.0
19/05:30am 13.4 10.7 10.2 81 1.7 NNW 15 20 8 11 1021.9 - 0.0
19/05:00am 13.6 10.9 10.2 80 1.8 NNW 15 20 8 11 1022.0 - 0.0
19/04:30am 13.7 10.6 10.3 80 1.8 NNW 17 24 9 13 1022.1 - 0.0
19/04:00am 13.7 10.9 10.1 79 1.9 NNW 15 20 8 11 1022.5 - 0.0
19/03:30am 13.8 11.1 10.2 79 1.9 N 15 22 8 12 1022.7 - 0.0
19/03:00am 13.9 11.6 10.3 79 1.9 NNW 13 19 7 10 1022.9 1023.0 0.0
19/02:30am 14.0 12.3 10.0 77 2.1 NNW 9 15 5 8 1023.1 - 0.0
19/02:00am 14.3 12.3 10.3 77 2.1 N 11 19 6 10 1023.3 - 0.0
19/01:30am 14.3 12.3 10.1 76 2.2 NNW 11 17 6 9 1023.8 - 0.0
19/01:00am 14.8 12.4 10.2 74 2.4 N 13 20 7 11 1024.2 - 0.0
19/12:30am 15.1 12.8 10.3 73 2.5 N 13 20 7 11 1024.7 - 0.0
19/12:00am 15.3 13.0 10.3 72 2.6 N 13 20 7 11 1025.0 1025.1 0.0
 
Date/Time
EDT
Temp
°C
App
Temp
°C
Dew
Point
Rel
Hum
%
Delta-T
°C
Wind Press
QNH
hPa
Press
MSL
hPa
Rain
since 9 am
mm
Dir
 
Spd
km/h
Gust
km/h
Spd
kts
Gust
kts
18/11:30pm 15.6 13.0 10.6 72 2.6 N 15 24 8 13 1025.0 - 0.0
18/11:00pm 15.4 13.2 10.8 74 2.4 N 13 24 7 13 1025.0 - 0.0
18/10:30pm 15.4 12.4 10.8 74 2.4 N 17 28 9 15 1024.9 - 0.0
18/10:00pm 15.3 12.7 10.7 74 2.4 N 15 24 8 13 1025.0 - 0.0
18/09:30pm 15.3 13.5 10.7 74 2.4 N 11 19 6 10 1025.3 - 0.0
18/09:00pm 15.1 12.8 10.5 74 2.4 N 13 17 7 9 1025.4 1025.5 0.0
18/08:30pm 15.2 13.3 10.6 74 2.4 N 11 15 6 8 1025.4 - 0.0
18/08:00pm 15.5 13.6 10.5 72 2.6 N 11 13 6 7 1025.3 - 0.0
18/07:30pm 16.0 14.2 10.7 71 2.8 N 11 15 6 8 1025.1 - 0.0
18/07:00pm 17.2 15.1 11.2 68 3.2 N 13 20 7 11 1024.6 - 0.0
18/06:30pm 16.9 15.1 12.0 73 2.7 NNE 13 17 7 9 1024.3 - 0.0
18/06:00pm 17.8 16.1 12.5 71 2.9 NE 13 19 7 10 1024.1 1024.2 0.0
18/05:30pm 18.1 16.2 11.7 66 3.5 NE 13 24 7 13 1023.9 - 0.0
18/05:00pm 18.6 16.9 12.4 67 3.5 NE 13 22 7 12 1024.0 - 0.0
18/04:30pm 18.5 15.6 12.3 67 3.4 ENE 19 26 10 14 1023.9 - 0.0
18/04:00pm 18.7 16.5 12.2 66 3.6 NE 15 24 8 13 1024.0 - 0.0
18/03:30pm 18.1 15.0 12.3 69 3.2 ENE 20 30 11 16 1024.2 - 0.0
18/03:00pm 18.3 14.6 11.6 65 3.7 ENE 22 32 12 17 1024.6 1024.7 0.0
18/02:30pm 17.9 14.5 11.2 65 3.6 ENE 20 30 11 16 1025.1 - 0.0
18/02:00pm 18.9 16.0 12.2 65 3.7 ENE 19 26 10 14 1025.6 - 0.0
18/01:30pm 18.8 16.2 11.9 64 3.8 E 17 24 9 13 1025.8 - 0.0
18/01:00pm 20.1 18.0 9.9 52 5.5 ENE 11 17 6 9 1026.1 - 0.0
18/12:30pm 20.1 17.4 10.2 53 5.3 NNE 15 22 8 12 1026.4 - 0.0
18/12:00pm 18.8 15.7 9.0 53 5.1 N 15 20 8 11 1026.9 1027.0 0.0
18/11:30am 18.6 15.3 9.4 55 4.8 NNE 17 28 9 15 1027.1 - 0.0
18/11:00am 18.0 14.7 9.4 57 4.5 N 17 22 9 12 1027.5 - 0.0
18/10:30am 17.3 14.3 9.2 59 4.2 N 15 24 8 13 1027.8 - 0.0
18/10:00am 16.4 12.5 8.6 60 4.0 N 19 32 10 17 1028.2 - 0.0
18/09:30am 15.9 12.5 9.1 64 3.5 NNE 17 28 9 15 1028.4 - 0.0
18/09:00am 15.0 11.4 8.5 65 3.3 N 17 22 9 12 1028.4 1028.5 0.6
18/08:30am 13.3 11.7 8.8 74 2.3 N 7 11 4 6 1028.3 - 0.6
18/08:00am 11.8 10.2 8.8 82 1.5 NNW 7 11 4 6 1028.3 - 0.6
18/07:30am 9.8 7.3 8.1 89 0.8 NNW 11 15 6 8 1028.1 - 0.6
18/07:00am 8.4 5.3 7.2 92 0.6 NNW 13 19 7 10 1027.7 - 0.6
18/06:30am 7.5 4.2 6.3 92 0.5 NNW 13 17 7 9 1027.5 - 0.6
18/06:00am 7.0 3.6 5.8 92 0.5 NNW 13 15 7 8 1027.3 1027.4 0.6
18/05:30am 6.8 3.7 5.6 92 0.5 NW 11 13 6 7 1027.3 - 0.6
18/05:00am 6.9 4.2 5.5 91 0.6 NW 9 13 5 7 1027.2 - 0.6
18/04:30am 7.7 4.7 6.2 90 0.7 NW 11 13 6 7 1027.2 - 0.6
18/04:00am 8.0 5.4 6.3 89 0.8 NNW 9 13 5 7 1027.4 - 0.6
18/03:30am 8.2 5.3 6.3 88 0.9 NNW 11 13 6 7 1027.5 - 0.6
18/03:00am 8.5 5.6 6.6 88 0.9 NW 11 13 6 7 1027.8 1027.9 0.6
18/02:30am 8.8 6.0 6.9 88 0.9 NW 11 13 6 7 1028.0 - 0.6
18/02:00am 8.8 6.0 6.9 88 0.9 NW 11 15 6 8 1028.2 - 0.6
18/01:30am 8.8 6.0 6.8 87 0.9 NW 11 13 6 7 1028.2 - 0.6
18/01:00am 9.2 6.4 7.0 86 1.0 NW 11 13 6 7 1028.5 - 0.6
18/12:30am 9.2 6.5 7.2 87 0.9 NW 11 15 6 8 1028.7 - 0.6
18/12:00am 9.0 6.2 7.1 88 0.9 NW 11 13 6 7 1028.7 1028.8 0.6
 
Date/Time
EDT
Temp
°C
App
Temp
°C
Dew
Point
Rel
Hum
%
Delta-T
°C
Wind Press
QNH
hPa
Press
MSL
hPa
Rain
since 9 am
mm
Dir
 
Spd
km/h
Gust
km/h
Spd
kts
Gust
kts
17/11:30pm 9.3 7.0 7.4 88 0.9 NW 9 11 5 6 1028.7 - 0.6
17/11:00pm 9.1 7.1 7.1 87 0.9 NW 7 9 4 5 1028.7 - 0.6
17/10:30pm 9.7 7.7 7.3 85 1.1 WNW 7 13 4 7 1028.7 - 0.6
17/10:00pm 9.7 7.8 6.8 82 1.4 NW 6 9 3 5 1028.8 - 0.6
17/09:30pm 11.2 9.6 6.3 72 2.3 NW 4 7 2 4 1028.8 - 0.6
17/09:00pm 13.2 10.5 5.6 60 3.5 ESE 9 13 5 7 1028.8 1028.9 0.6
17/08:30pm 13.2 10.7 6.5 64 3.2 ESE 9 15 5 8 1028.4 - 0.6
17/08:00pm 13.2 10.3 6.3 63 3.3 ESE 11 15 6 8 1028.2 - 0.6
17/07:30pm 13.0 10.0 5.9 62 3.4 SE 11 17 6 9 1028.0 - 0.6
17/07:00pm 13.1 10.1 6.0 62 3.4 SE 11 17 6 9 1027.7 - 0.6
17/06:30pm 13.7 10.7 5.8 59 3.7 SE 11 17 6 9 1027.7 - 0.6
17/06:00pm 13.8 11.2 5.9 59 3.7 SE 9 13 5 7 1027.6 1027.7 0.6
17/05:30pm 14.2 10.7 5.6 56 4.1 SE 13 19 7 10 1027.4 - 0.6
17/05:00pm 14.3 11.7 6.2 58 3.9 ESE 9 15 5 8 1027.2 - 0.6
17/04:30pm 14.6 12.5 6.7 59 3.8 SSE 7 13 4 7 1027.2 - 0.6
17/04:00pm 14.5 12.3 6.3 58 3.9 SE 7 13 4 7 1027.1 - 0.6
17/03:30pm 15.0 12.6 7.1 59 3.9 S 9 17 5 9 1027.1 - 0.6

Other Formats:

Comma delimited format used in spreadsheet applications
http://www.bom.gov.au/fwo/IDV60801/IDV60801.94935.axf

JavaScript Object Notation format (JSON) in row-major order
http://www.bom.gov.au/fwo/IDV60801/IDV60801.94935.json